sensor_id;sensor_type;location;lat;lon;timestamp;pressure;altitude;pressure_sealevel;temperature;humidity
52735;BME280;38631;47.572;10.704;2023-02-17T00:02:22;93437.50;;;4.37;63.83
52735;BME280;38631;47.572;10.704;2023-02-17T00:04:47;93438.38;;;4.42;63.71
52735;BME280;38631;47.572;10.704;2023-02-17T00:07:12;93447.84;;;4.43;64.50
52735;BME280;38631;47.572;10.704;2023-02-17T00:09:38;93435.69;;;4.37;65.01
52735;BME280;38631;47.572;10.704;2023-02-17T00:12:03;93424.44;;;4.42;64.50
52735;BME280;38631;47.572;10.704;2023-02-17T00:14:28;93433.09;;;4.42;65.25
52735;BME280;38631;47.572;10.704;2023-02-17T00:16:54;93433.09;;;4.42;64.54
52735;BME280;38631;47.572;10.704;2023-02-17T00:19:19;93429.31;;;4.33;63.81
52735;BME280;38631;47.572;10.704;2023-02-17T00:21:58;93435.75;;;4.42;62.23
52735;BME280;38631;47.572;10.704;2023-02-17T00:24:26;93436.22;;;4.39;63.37
52735;BME280;38631;47.572;10.704;2023-02-17T00:26:51;93435.25;;;4.45;62.99
52735;BME280;38631;47.572;10.704;2023-02-17T00:29:17;93441.84;;;4.48;63.14
52735;BME280;38631;47.572;10.704;2023-02-17T00:31:43;93433.66;;;4.44;63.70
52735;BME280;38631;47.572;10.704;2023-02-17T00:34:09;93434.94;;;4.42;63.24
52735;BME280;38631;47.572;10.704;2023-02-17T00:36:34;93432.50;;;4.35;64.57
52735;BME280;38631;47.572;10.704;2023-02-17T00:39:00;93431.38;;;4.31;63.26
52735;BME280;38631;47.572;10.704;2023-02-17T00:41:26;93435.56;;;4.27;65.01
52735;BME280;38631;47.572;10.704;2023-02-17T00:43:52;93434.59;;;4.16;64.97
52735;BME280;38631;47.572;10.704;2023-02-17T00:46:17;93443.47;;;4.10;65.79
52735;BME280;38631;47.572;10.704;2023-02-17T00:48:43;93438.44;;;4.08;65.82
52735;BME280;38631;47.572;10.704;2023-02-17T00:51:09;93443.56;;;3.98;66.25
52735;BME280;38631;47.572;10.704;2023-02-17T00:53:35;93443.81;;;3.97;66.81
52735;BME280;38631;47.572;10.704;2023-02-17T00:56:00;93446.44;;;3.80;67.47
52735;BME280;38631;47.572;10.704;2023-02-17T00:58:26;93455.13;;;3.80;68.92
52735;BME280;38631;47.572;10.704;2023-02-17T01:00:51;93458.22;;;3.77;68.33
52735;BME280;38631;47.572;10.704;2023-02-17T01:03:17;93459.19;;;3.88;69.11
52735;BME280;38631;47.572;10.704;2023-02-17T01:05:44;93467.91;;;3.94;67.99
52735;BME280;38631;47.572;10.704;2023-02-17T01:08:10;93461.56;;;3.89;67.43
52735;BME280;38631;47.572;10.704;2023-02-17T01:10:40;93465.56;;;3.75;68.68
52735;BME280;38631;47.572;10.704;2023-02-17T01:13:07;93474.72;;;3.89;68.72
52735;BME280;38631;47.572;10.704;2023-02-17T01:15:37;93465.94;;;4.01;69.32
52735;BME280;38631;47.572;10.704;2023-02-17T01:18:03;93468.66;;;3.72;68.70
52735;BME280;38631;47.572;10.704;2023-02-17T01:20:28;93456.81;;;3.70;68.94
52735;BME280;38631;47.572;10.704;2023-02-17T01:22:53;93456.41;;;3.95;68.92
52735;BME280;38631;47.572;10.704;2023-02-17T01:25:19;93453.91;;;3.88;69.46
52735;BME280;38631;47.572;10.704;2023-02-17T01:27:44;93452.16;;;3.94;69.00
52735;BME280;38631;47.572;10.704;2023-02-17T01:30:11;93439.19;;;4.04;65.33
52735;BME280;38631;47.572;10.704;2023-02-17T01:32:38;93442.75;;;4.15;66.71
52735;BME280;38631;47.572;10.704;2023-02-17T01:35:03;93446.47;;;4.19;66.39
52735;BME280;38631;47.572;10.704;2023-02-17T01:37:31;93440.75;;;4.22;65.01
52735;BME280;38631;47.572;10.704;2023-02-17T01:39:57;93435.47;;;4.22;64.94
52735;BME280;38631;47.572;10.704;2023-02-17T01:42:22;93442.22;;;4.35;63.94
52735;BME280;38631;47.572;10.704;2023-02-17T01:47:45;93417.56;;;4.41;63.41
52735;BME280;38631;47.572;10.704;2023-02-17T01:50:12;93417.34;;;4.42;63.79
52735;BME280;38631;47.572;10.704;2023-02-17T01:52:39;93414.88;;;4.36;63.38
52735;BME280;38631;47.572;10.704;2023-02-17T01:55:10;93408.38;;;4.43;62.71
52735;BME280;38631;47.572;10.704;2023-02-17T01:57:40;93409.44;;;4.42;63.33
52735;BME280;38631;47.572;10.704;2023-02-17T02:00:07;93402.56;;;4.41;63.88
52735;BME280;38631;47.572;10.704;2023-02-17T02:02:34;93403.63;;;4.40;63.58
52735;BME280;38631;47.572;10.704;2023-02-17T02:05:00;93393.84;;;4.36;63.55
52735;BME280;38631;47.572;10.704;2023-02-17T02:07:29;93390.19;;;4.37;63.61
52735;BME280;38631;47.572;10.704;2023-02-17T02:09:57;93400.72;;;4.37;63.76
52735;BME280;38631;47.572;10.704;2023-02-17T02:12:31;93384.16;;;4.41;63.43
52735;BME280;38631;47.572;10.704;2023-02-17T02:15:00;93394.63;;;4.36;63.08
52735;BME280;38631;47.572;10.704;2023-02-17T02:17:39;93390.13;;;4.31;63.68
52735;BME280;38631;47.572;10.704;2023-02-17T02:20:42;93396.19;;;4.32;64.10
52735;BME280;38631;47.572;10.704;2023-02-17T02:26:15;93394.91;;;4.35;64.61
52735;BME280;38631;47.572;10.704;2023-02-17T02:29:08;93407.19;;;4.29;64.73
52735;BME280;38631;47.572;10.704;2023-02-17T02:32:05;93400.88;;;4.30;65.24
52735;BME280;38631;47.572;10.704;2023-02-17T02:34:37;93399.38;;;4.34;64.86
52735;BME280;38631;47.572;10.704;2023-02-17T02:37:10;93398.53;;;4.33;65.29
52735;BME280;38631;47.572;10.704;2023-02-17T02:39:40;93410.13;;;4.32;63.71
52735;BME280;38631;47.572;10.704;2023-02-17T02:42:10;93393.78;;;4.30;64.15
52735;BME280;38631;47.572;10.704;2023-02-17T02:44:37;93404.63;;;4.34;64.59
52735;BME280;38631;47.572;10.704;2023-02-17T02:47:05;93391.16;;;4.30;64.48
52735;BME280;38631;47.572;10.704;2023-02-17T02:49:32;93397.53;;;4.35;63.67
52735;BME280;38631;47.572;10.704;2023-02-17T02:52:26;93395.19;;;4.38;63.60
52735;BME280;38631;47.572;10.704;2023-02-17T02:55:07;93386.81;;;4.41;63.65
52735;BME280;38631;47.572;10.704;2023-02-17T03:00:28;93390.03;;;4.48;64.08
52735;BME280;38631;47.572;10.704;2023-02-17T03:06:14;93391.66;;;4.49;64.41
52735;BME280;38631;47.572;10.704;2023-02-17T03:08:52;93382.66;;;4.45;64.37
52735;BME280;38631;47.572;10.704;2023-02-17T03:11:25;93387.97;;;4.50;62.71
52735;BME280;38631;47.572;10.704;2023-02-17T03:14:07;93387.34;;;4.43;64.04
52735;BME280;38631;47.572;10.704;2023-02-17T03:16:34;93380.03;;;4.45;63.99
52735;BME280;38631;47.572;10.704;2023-02-17T03:19:00;93374.34;;;4.31;64.51
52735;BME280;38631;47.572;10.704;2023-02-17T03:21:32;93379.84;;;4.30;64.94
52735;BME280;38631;47.572;10.704;2023-02-17T03:23:58;93372.50;;;4.32;65.78
52735;BME280;38631;47.572;10.704;2023-02-17T03:26:23;93375.75;;;4.39;65.56
52735;BME280;38631;47.572;10.704;2023-02-17T03:28:49;93378.34;;;4.34;64.67
52735;BME280;38631;47.572;10.704;2023-02-17T03:31:14;93381.47;;;4.36;65.25
52735;BME280;38631;47.572;10.704;2023-02-17T03:33:40;93377.09;;;4.42;64.73
52735;BME280;38631;47.572;10.704;2023-02-17T03:36:05;93372.94;;;4.46;65.02
52735;BME280;38631;47.572;10.704;2023-02-17T03:38:31;93382.47;;;4.52;63.48
52735;BME280;38631;47.572;10.704;2023-02-17T03:40:56;93371.75;;;4.59;63.24
52735;BME280;38631;47.572;10.704;2023-02-17T03:43:21;93379.63;;;4.59;63.14
52735;BME280;38631;47.572;10.704;2023-02-17T03:45:47;93376.81;;;4.65;63.68
52735;BME280;38631;47.572;10.704;2023-02-17T03:48:12;93375.59;;;4.73;62.70
52735;BME280;38631;47.572;10.704;2023-02-17T03:50:37;93376.09;;;4.70;63.03
52735;BME280;38631;47.572;10.704;2023-02-17T03:53:03;93374.97;;;4.66;62.59
52735;BME280;38631;47.572;10.704;2023-02-17T03:55:29;93365.25;;;4.66;63.80
52735;BME280;38631;47.572;10.704;2023-02-17T03:57:54;93364.16;;;4.62;63.84
52735;BME280;38631;47.572;10.704;2023-02-17T04:00:20;93365.31;;;4.71;62.72
52735;BME280;38631;47.572;10.704;2023-02-17T04:02:45;93358.31;;;4.82;61.67
52735;BME280;38631;47.572;10.704;2023-02-17T04:05:11;93369.03;;;4.75;61.48
52735;BME280;38631;47.572;10.704;2023-02-17T04:07:36;93374.78;;;4.72;62.09
52735;BME280;38631;47.572;10.704;2023-02-17T04:10:02;93358.50;;;4.75;61.89
52735;BME280;38631;47.572;10.704;2023-02-17T04:12:27;93358.00;;;4.79;62.34
52735;BME280;38631;47.572;10.704;2023-02-17T04:14:53;93368.81;;;4.77;62.23
52735;BME280;38631;47.572;10.704;2023-02-17T04:17:18;93364.94;;;4.85;60.87
52735;BME280;38631;47.572;10.704;2023-02-17T04:19:43;93358.38;;;4.87;61.75
52735;BME280;38631;47.572;10.704;2023-02-17T04:22:09;93367.56;;;4.85;60.72
52735;BME280;38631;47.572;10.704;2023-02-17T04:24:37;93369.88;;;4.81;61.33
52735;BME280;38631;47.572;10.704;2023-02-17T04:27:03;93363.88;;;4.86;60.91
52735;BME280;38631;47.572;10.704;2023-02-17T04:29:30;93367.78;;;4.83;61.10
52735;BME280;38631;47.572;10.704;2023-02-17T04:31:55;93373.31;;;4.82;61.32
52735;BME280;38631;47.572;10.704;2023-02-17T04:34:21;93363.63;;;4.87;61.38
52735;BME280;38631;47.572;10.704;2023-02-17T04:36:46;93378.38;;;4.88;60.89
52735;BME280;38631;47.572;10.704;2023-02-17T04:39:11;93365.47;;;4.87;60.90
52735;BME280;38631;47.572;10.704;2023-02-17T04:41:37;93373.69;;;4.95;59.87
52735;BME280;38631;47.572;10.704;2023-02-17T04:44:02;93378.13;;;4.90;60.47
52735;BME280;38631;47.572;10.704;2023-02-17T04:46:27;93366.25;;;4.87;61.19
52735;BME280;38631;47.572;10.704;2023-02-17T04:48:53;93368.63;;;4.89;62.48
52735;BME280;38631;47.572;10.704;2023-02-17T04:51:19;93375.13;;;4.81;61.78
52735;BME280;38631;47.572;10.704;2023-02-17T04:53:44;93378.91;;;4.90;61.67
52735;BME280;38631;47.572;10.704;2023-02-17T04:56:09;93378.09;;;4.85;61.76
52735;BME280;38631;47.572;10.704;2023-02-17T04:58:35;93372.88;;;4.90;62.00
52735;BME280;38631;47.572;10.704;2023-02-17T05:01:00;93376.28;;;4.90;62.07
52735;BME280;38631;47.572;10.704;2023-02-17T05:03:25;93363.72;;;4.97;60.31
52735;BME280;38631;47.572;10.704;2023-02-17T05:05:51;93371.91;;;5.01;60.59
52735;BME280;38631;47.572;10.704;2023-02-17T05:08:16;93363.81;;;5.08;60.75
52735;BME280;38631;47.572;10.704;2023-02-17T05:10:42;93369.31;;;5.06;61.14
52735;BME280;38631;47.572;10.704;2023-02-17T05:13:07;93362.97;;;5.02;60.75
52735;BME280;38631;47.572;10.704;2023-02-17T05:15:32;93359.06;;;5.05;60.53
52735;BME280;38631;47.572;10.704;2023-02-17T05:17:58;93371.16;;;5.06;60.77
52735;BME280;38631;47.572;10.704;2023-02-17T05:20:23;93357.41;;;4.98;61.12
52735;BME280;38631;47.572;10.704;2023-02-17T05:22:48;93366.03;;;4.94;62.13
52735;BME280;38631;47.572;10.704;2023-02-17T05:25:14;93357.97;;;5.01;61.61
52735;BME280;38631;47.572;10.704;2023-02-17T05:27:39;93362.38;;;4.95;61.49
52735;BME280;38631;47.572;10.704;2023-02-17T05:30:05;93361.78;;;4.88;62.97
52735;BME280;38631;47.572;10.704;2023-02-17T05:32:30;93361.78;;;4.88;63.75
52735;BME280;38631;47.572;10.704;2023-02-17T05:34:55;93365.03;;;4.95;63.34
52735;BME280;38631;47.572;10.704;2023-02-17T05:37:21;93367.19;;;5.03;61.93
52735;BME280;38631;47.572;10.704;2023-02-17T05:39:46;93361.66;;;5.00;62.53
52735;BME280;38631;47.572;10.704;2023-02-17T05:42:12;93358.75;;;5.01;62.28
52735;BME280;38631;47.572;10.704;2023-02-17T05:44:37;93351.66;;;5.02;62.31
52735;BME280;38631;47.572;10.704;2023-02-17T05:47:02;93368.88;;;5.14;61.88
52735;BME280;38631;47.572;10.704;2023-02-17T05:49:28;93363.91;;;5.18;62.20
52735;BME280;38631;47.572;10.704;2023-02-17T05:51:53;93357.84;;;5.17;61.82
52735;BME280;38631;47.572;10.704;2023-02-17T05:54:18;93362.28;;;5.12;61.94
52735;BME280;38631;47.572;10.704;2023-02-17T05:56:44;93354.63;;;5.10;62.44
52735;BME280;38631;47.572;10.704;2023-02-17T05:59:09;93365.69;;;5.82;62.08
52735;BME280;38631;47.572;10.704;2023-02-17T06:01:34;93352.41;;;5.67;61.18
52735;BME280;38631;47.572;10.704;2023-02-17T06:04:00;93356.22;;;5.49;62.04
52735;BME280;38631;47.572;10.704;2023-02-17T06:06:25;93352.69;;;5.33;62.41
52735;BME280;38631;47.572;10.704;2023-02-17T06:08:50;93361.16;;;5.35;61.85
52735;BME280;38631;47.572;10.704;2023-02-17T06:11:16;93343.56;;;5.46;62.65
52735;BME280;38631;47.572;10.704;2023-02-17T06:13:41;93360.88;;;5.36;62.31
52735;BME280;38631;47.572;10.704;2023-02-17T06:16:07;93371.91;;;5.33;63.23
52735;BME280;38631;47.572;10.704;2023-02-17T06:18:32;93367.41;;;5.29;62.83
52735;BME280;38631;47.572;10.704;2023-02-17T06:20:58;93361.34;;;5.28;62.97
52735;BME280;38631;47.572;10.704;2023-02-17T06:23:24;93364.53;;;5.30;62.88
52735;BME280;38631;47.572;10.704;2023-02-17T06:25:50;93367.13;;;5.25;63.03
52735;BME280;38631;47.572;10.704;2023-02-17T06:28:15;93372.34;;;5.52;62.85
52735;BME280;38631;47.572;10.704;2023-02-17T06:30:40;93370.69;;;5.46;63.95
52735;BME280;38631;47.572;10.704;2023-02-17T06:33:06;93379.13;;;5.43;64.17
52735;BME280;38631;47.572;10.704;2023-02-17T06:35:31;93373.94;;;5.58;62.97
52735;BME280;38631;47.572;10.704;2023-02-17T06:37:56;93372.84;;;5.49;63.54
52735;BME280;38631;47.572;10.704;2023-02-17T06:40:22;93379.38;;;5.47;63.93
52735;BME280;38631;47.572;10.704;2023-02-17T06:42:47;93376.50;;;5.48;63.05
52735;BME280;38631;47.572;10.704;2023-02-17T06:45:13;93366.53;;;5.50;62.80
52735;BME280;38631;47.572;10.704;2023-02-17T06:47:38;93378.00;;;5.39;63.76
52735;BME280;38631;47.572;10.704;2023-02-17T06:50:04;93375.88;;;5.36;64.55
52735;BME280;38631;47.572;10.704;2023-02-17T06:52:29;93374.44;;;5.50;63.15
52735;BME280;38631;47.572;10.704;2023-02-17T06:54:55;93375.19;;;5.46;63.98
52735;BME280;38631;47.572;10.704;2023-02-17T06:57:20;93377.25;;;5.44;64.78
52735;BME280;38631;47.572;10.704;2023-02-17T06:59:46;93372.53;;;5.46;66.33
52735;BME280;38631;47.572;10.704;2023-02-17T07:02:12;93388.09;;;5.47;65.05
52735;BME280;38631;47.572;10.704;2023-02-17T07:04:39;93385.72;;;5.46;65.49
52735;BME280;38631;47.572;10.704;2023-02-17T07:07:04;93374.19;;;5.52;65.71
52735;BME280;38631;47.572;10.704;2023-02-17T07:09:30;93387.13;;;5.58;64.82
52735;BME280;38631;47.572;10.704;2023-02-17T07:11:55;93390.50;;;5.54;66.82
52735;BME280;38631;47.572;10.704;2023-02-17T07:14:22;93391.19;;;5.76;65.27
52735;BME280;38631;47.572;10.704;2023-02-17T07:16:47;93406.25;;;5.81;64.09
52735;BME280;38631;47.572;10.704;2023-02-17T07:19:13;93396.06;;;5.90;64.07
52735;BME280;38631;47.572;10.704;2023-02-17T07:21:38;93409.22;;;5.90;64.70
52735;BME280;38631;47.572;10.704;2023-02-17T07:24:03;93401.44;;;6.05;63.80
52735;BME280;38631;47.572;10.704;2023-02-17T07:26:29;93413.50;;;5.96;63.97
52735;BME280;38631;47.572;10.704;2023-02-17T07:28:54;93410.25;;;5.89;64.29
52735;BME280;38631;47.572;10.704;2023-02-17T07:31:19;93413.69;;;5.89;65.81
52735;BME280;38631;47.572;10.704;2023-02-17T07:33:45;93411.88;;;5.90;65.42
52735;BME280;38631;47.572;10.704;2023-02-17T07:36:14;93413.00;;;6.04;64.32
52735;BME280;38631;47.572;10.704;2023-02-17T07:38:40;93416.88;;;6.34;63.93
52735;BME280;38631;47.572;10.704;2023-02-17T07:41:16;93412.19;;;6.46;63.23
52735;BME280;38631;47.572;10.704;2023-02-17T07:43:42;93416.69;;;6.51;63.19
52735;BME280;38631;47.572;10.704;2023-02-17T07:46:09;93422.78;;;6.56;62.88
52735;BME280;38631;47.572;10.704;2023-02-17T07:48:35;93414.66;;;6.68;63.09
52735;BME280;38631;47.572;10.704;2023-02-17T07:51:12;93413.59;;;6.74;64.54
52735;BME280;38631;47.572;10.704;2023-02-17T07:53:38;93415.41;;;6.58;65.82
52735;BME280;38631;47.572;10.704;2023-02-17T07:56:05;93405.19;;;6.77;65.01
52735;BME280;38631;47.572;10.704;2023-02-17T07:58:33;93401.75;;;6.87;63.90
52735;BME280;38631;47.572;10.704;2023-02-17T08:01:07;93405.81;;;7.10;63.01
52735;BME280;38631;47.572;10.704;2023-02-17T08:03:33;93406.59;;;7.10;63.63
52735;BME280;38631;47.572;10.704;2023-02-17T08:05:59;93405.28;;;7.13;63.17
52735;BME280;38631;47.572;10.704;2023-02-17T08:08:24;93406.28;;;7.02;63.03
52735;BME280;38631;47.572;10.704;2023-02-17T08:11:14;93412.34;;;6.97;63.87
52735;BME280;38631;47.572;10.704;2023-02-17T08:13:59;93416.66;;;7.29;62.64
52735;BME280;38631;47.572;10.704;2023-02-17T08:16:25;93402.13;;;7.36;62.85
52735;BME280;38631;47.572;10.704;2023-02-17T08:18:54;93409.81;;;7.74;61.76
52735;BME280;38631;47.572;10.704;2023-02-17T08:21:24;93402.41;;;7.71;61.75
52735;BME280;38631;47.572;10.704;2023-02-17T08:23:49;93415.09;;;7.69;62.63
52735;BME280;38631;47.572;10.704;2023-02-17T08:26:15;93410.06;;;7.98;61.08
52735;BME280;38631;47.572;10.704;2023-02-17T08:28:42;93418.50;;;8.15;60.57
52735;BME280;38631;47.572;10.704;2023-02-17T08:31:19;93416.13;;;8.04;60.61
52735;BME280;38631;47.572;10.704;2023-02-17T08:33:44;93414.81;;;8.01;60.88
52735;BME280;38631;47.572;10.704;2023-02-17T08:36:10;93419.81;;;7.97;60.95
52735;BME280;38631;47.572;10.704;2023-02-17T08:38:35;93429.34;;;8.14;60.85
52735;BME280;38631;47.572;10.704;2023-02-17T08:41:01;93422.47;;;8.08;61.18
52735;BME280;38631;47.572;10.704;2023-02-17T08:43:26;93424.81;;;8.25;60.60
52735;BME280;38631;47.572;10.704;2023-02-17T08:45:51;93432.22;;;8.17;60.78
52735;BME280;38631;47.572;10.704;2023-02-17T08:48:17;93436.69;;;8.42;60.76
52735;BME280;38631;47.572;10.704;2023-02-17T08:50:46;93436.19;;;8.35;60.66
52735;BME280;38631;47.572;10.704;2023-02-17T08:53:11;93441.78;;;8.13;61.63
52735;BME280;38631;47.572;10.704;2023-02-17T08:55:37;93441.50;;;7.94;62.17
52735;BME280;38631;47.572;10.704;2023-02-17T08:58:02;93444.44;;;8.08;62.33
52735;BME280;38631;47.572;10.704;2023-02-17T09:00:27;93445.19;;;8.29;61.06
52735;BME280;38631;47.572;10.704;2023-02-17T09:02:53;93450.22;;;8.31;61.66
52735;BME280;38631;47.572;10.704;2023-02-17T09:05:18;93465.81;;;8.42;62.08
52735;BME280;38631;47.572;10.704;2023-02-17T09:07:44;93477.47;;;8.26;61.97
52735;BME280;38631;47.572;10.704;2023-02-17T09:10:10;93467.94;;;8.51;61.59
52735;BME280;38631;47.572;10.704;2023-02-17T09:12:36;93468.44;;;8.48;60.63
52735;BME280;38631;47.572;10.704;2023-02-17T09:15:01;93472.97;;;8.42;62.09
52735;BME280;38631;47.572;10.704;2023-02-17T09:17:27;93481.94;;;8.56;61.55
52735;BME280;38631;47.572;10.704;2023-02-17T09:19:52;93480.66;;;8.28;62.04
52735;BME280;38631;47.572;10.704;2023-02-17T09:22:18;93485.16;;;8.48;61.97
52735;BME280;38631;47.572;10.704;2023-02-17T09:24:45;93494.94;;;8.42;62.35
52735;BME280;38631;47.572;10.704;2023-02-17T09:27:10;93483.28;;;8.54;62.77
52735;BME280;38631;47.572;10.704;2023-02-17T09:29:37;93491.19;;;8.59;62.29
52735;BME280;38631;47.572;10.704;2023-02-17T09:32:07;93492.28;;;8.58;62.39
52735;BME280;38631;47.572;10.704;2023-02-17T09:34:36;93491.66;;;8.81;62.44
52735;BME280;38631;47.572;10.704;2023-02-17T09:37:01;93483.66;;;9.02;61.88
52735;BME280;38631;47.572;10.704;2023-02-17T09:39:27;93493.78;;;8.79;62.68
52735;BME280;38631;47.572;10.704;2023-02-17T09:41:52;93490.31;;;8.94;64.70
52735;BME280;38631;47.572;10.704;2023-02-17T09:44:24;93484.72;;;9.01;64.00
52735;BME280;38631;47.572;10.704;2023-02-17T09:49:28;93485.56;;;8.86;64.70
52735;BME280;38631;47.572;10.704;2023-02-17T09:52:07;93496.47;;;8.64;67.15
52735;BME280;38631;47.572;10.704;2023-02-17T09:54:40;93501.19;;;8.82;66.79
52735;BME280;38631;47.572;10.704;2023-02-17T09:57:14;93497.00;;;8.71;66.21
52735;BME280;38631;47.572;10.704;2023-02-17T09:59:49;93493.06;;;8.58;68.15
52735;BME280;38631;47.572;10.704;2023-02-17T10:02:35;93488.00;;;8.67;68.05
52735;BME280;38631;47.572;10.704;2023-02-17T10:05:07;93497.47;;;8.94;66.58
52735;BME280;38631;47.572;10.704;2023-02-17T10:07:40;93496.16;;;8.91;66.53
52735;BME280;38631;47.572;10.704;2023-02-17T10:10:15;93495.13;;;8.77;67.83
52735;BME280;38631;47.572;10.704;2023-02-17T10:12:45;93498.56;;;8.77;67.48
52735;BME280;38631;47.572;10.704;2023-02-17T10:15:16;93503.88;;;8.67;67.46
52735;BME280;38631;47.572;10.704;2023-02-17T10:20:41;93503.78;;;9.08;68.22
52735;BME280;38631;47.572;10.704;2023-02-17T10:23:15;93502.34;;;9.31;67.56
52735;BME280;38631;47.572;10.704;2023-02-17T10:34:10;93486.09;;;9.43;66.67
52735;BME280;38631;47.572;10.704;2023-02-17T10:36:49;93492.03;;;9.74;66.26
52735;BME280;38631;47.572;10.704;2023-02-17T10:39:45;93501.03;;;9.73;67.88
52735;BME280;38631;47.572;10.704;2023-02-17T10:42:24;93486.84;;;9.54;67.60
52735;BME280;38631;47.572;10.704;2023-02-17T10:44:52;93491.38;;;9.53;67.36
52735;BME280;38631;47.572;10.704;2023-02-17T10:47:20;93491.22;;;9.73;67.36
52735;BME280;38631;47.572;10.704;2023-02-17T10:49:49;93479.25;;;9.81;67.23
52735;BME280;38631;47.572;10.704;2023-02-17T10:52:19;93476.47;;;9.57;67.40
52735;BME280;38631;47.572;10.704;2023-02-17T10:57:22;93472.66;;;9.73;67.53
52735;BME280;38631;47.572;10.704;2023-02-17T10:59:48;93479.63;;;9.64;68.46
52735;BME280;38631;47.572;10.704;2023-02-17T11:04:57;93466.84;;;9.71;66.96
52735;BME280;38631;47.572;10.704;2023-02-17T11:07:36;93468.00;;;9.94;66.62
52735;BME280;38631;47.572;10.704;2023-02-17T11:10:19;93453.50;;;9.82;68.12
52735;BME280;38631;47.572;10.704;2023-02-17T11:12:45;93452.91;;;9.90;68.37
52735;BME280;38631;47.572;10.704;2023-02-17T11:15:15;93448.06;;;9.97;67.54
52735;BME280;38631;47.572;10.704;2023-02-17T11:17:43;93449.34;;;10.05;67.19
52735;BME280;38631;47.572;10.704;2023-02-17T11:22:40;93447.50;;;10.00;67.31
52735;BME280;38631;47.572;10.704;2023-02-17T11:25:31;93444.16;;;9.89;68.01
52735;BME280;38631;47.572;10.704;2023-02-17T11:28:03;93444.06;;;10.00;68.97
52735;BME280;38631;47.572;10.704;2023-02-17T11:30:30;93451.19;;;10.04;67.77
52735;BME280;38631;47.572;10.704;2023-02-17T11:32:56;93452.31;;;10.27;67.32
52735;BME280;38631;47.572;10.704;2023-02-17T11:38:13;93451.28;;;10.23;67.34
52735;BME280;38631;47.572;10.704;2023-02-17T11:40:39;93456.88;;;10.56;67.83
52735;BME280;38631;47.572;10.704;2023-02-17T11:43:05;93446.00;;;10.28;68.42
52735;BME280;38631;47.572;10.704;2023-02-17T11:45:41;93448.56;;;10.63;67.31
52735;BME280;38631;47.572;10.704;2023-02-17T11:48:42;93452.81;;;10.64;68.16
52735;BME280;38631;47.572;10.704;2023-02-17T11:57:34;93435.06;;;10.59;68.47
52735;BME280;38631;47.572;10.704;2023-02-17T12:00:17;93432.97;;;10.56;68.16
52735;BME280;38631;47.572;10.704;2023-02-17T12:08:40;93427.31;;;10.38;68.08
52735;BME280;38631;47.572;10.704;2023-02-17T12:11:29;93423.44;;;10.26;68.22
52735;BME280;38631;47.572;10.704;2023-02-17T12:22:19;93402.31;;;10.40;68.83
52735;BME280;38631;47.572;10.704;2023-02-17T12:27:43;93396.53;;;10.80;68.16
52735;BME280;38631;47.572;10.704;2023-02-17T12:35:33;93394.06;;;10.89;68.04
52735;BME280;38631;47.572;10.704;2023-02-17T12:38:10;93400.88;;;10.95;67.37
52735;BME280;38631;47.572;10.704;2023-02-17T12:40:44;93392.94;;;10.71;67.19
52735;BME280;38631;47.572;10.704;2023-02-17T12:43:31;93397.69;;;10.74;67.57
52735;BME280;38631;47.572;10.704;2023-02-17T12:46:03;93385.66;;;10.82;67.24
52735;BME280;38631;47.572;10.704;2023-02-17T12:48:37;93397.44;;;10.71;68.27
52735;BME280;38631;47.572;10.704;2023-02-17T12:51:17;93387.13;;;10.69;67.93
52735;BME280;38631;47.572;10.704;2023-02-17T12:53:58;93386.66;;;10.86;68.21
52735;BME280;38631;47.572;10.704;2023-02-17T12:56:43;93380.19;;;10.92;68.48
52735;BME280;38631;47.572;10.704;2023-02-17T12:59:12;93381.50;;;10.95;67.58
52735;BME280;38631;47.572;10.704;2023-02-17T13:01:45;93370.78;;;11.00;68.06
52735;BME280;38631;47.572;10.704;2023-02-17T13:04:16;93383.19;;;11.29;67.86
52735;BME280;38631;47.572;10.704;2023-02-17T13:06:47;93372.25;;;11.11;67.72
52735;BME280;38631;47.572;10.704;2023-02-17T13:11:53;93385.75;;;11.34;66.92
52735;BME280;38631;47.572;10.704;2023-02-17T13:14:38;93384.09;;;11.19;67.32
52735;BME280;38631;47.572;10.704;2023-02-17T13:17:04;93380.09;;;11.21;66.83
52735;BME280;38631;47.572;10.704;2023-02-17T13:19:33;93395.34;;;11.11;67.20
52735;BME280;38631;47.572;10.704;2023-02-17T13:22:00;93386.69;;;11.24;67.89
52735;BME280;38631;47.572;10.704;2023-02-17T13:24:34;93386.59;;;11.10;67.70
52735;BME280;38631;47.572;10.704;2023-02-17T13:27:20;93393.28;;;10.89;68.92
52735;BME280;38631;47.572;10.704;2023-02-17T13:30:01;93391.78;;;11.01;67.87
52735;BME280;38631;47.572;10.704;2023-02-17T13:32:29;93380.53;;;10.86;69.29
52735;BME280;38631;47.572;10.704;2023-02-17T13:35:00;93389.31;;;10.86;69.50
52735;BME280;38631;47.572;10.704;2023-02-17T13:39:58;93399.75;;;10.58;70.44
52735;BME280;38631;47.572;10.704;2023-02-17T13:42:55;93387.06;;;10.74;70.63
52735;BME280;38631;47.572;10.704;2023-02-17T13:58:33;93388.81;;;10.60;70.66
52735;BME280;38631;47.572;10.704;2023-02-17T14:01:00;93406.69;;;10.54;70.56
52735;BME280;38631;47.572;10.704;2023-02-17T14:03:34;93399.22;;;10.56;70.76
52735;BME280;38631;47.572;10.704;2023-02-17T14:06:08;93405.00;;;10.64;70.26
52735;BME280;38631;47.572;10.704;2023-02-17T14:08:37;93412.97;;;10.64;70.40
52735;BME280;38631;47.572;10.704;2023-02-17T14:11:15;93421.88;;;10.49;70.72
52735;BME280;38631;47.572;10.704;2023-02-17T14:13:43;93420.75;;;10.55;70.67
52735;BME280;38631;47.572;10.704;2023-02-17T14:19:00;93430.19;;;10.66;70.15
52735;BME280;38631;47.572;10.704;2023-02-17T14:24:33;93430.41;;;10.94;69.76
52735;BME280;38631;47.572;10.704;2023-02-17T14:27:08;93431.25;;;10.89;69.37
52735;BME280;38631;47.572;10.704;2023-02-17T14:29:44;93424.13;;;10.85;69.97
52735;BME280;38631;47.572;10.704;2023-02-17T14:32:27;93419.28;;;10.68;70.22
52735;BME280;38631;47.572;10.704;2023-02-17T14:34:53;93429.31;;;10.71;70.82
52735;BME280;38631;47.572;10.704;2023-02-17T14:37:22;93426.53;;;10.86;70.07